Airfield :
LOGIN :

Register | Disclaimer

   EN    FR    IT 

 










Legend :    VFR   Marginal VFR   IFR   Intensive IFR   Very Intensive IFR
Visi :
Ceiling :
>= 8 km
>= 3000ft
5 to 8 km
1000 to 3000 ft
1500m to 5 km
500 to 1000 ft
800 to 1500m
200 to 500 ft
< 800m
< 200 ft
Symbols :   Thunderstorms  Fog  Heavy snow  Heavy precipitations  Wind > 20 kt
SIGMETs :     Misc.  Thunderstorms  Icing  Turbulence  Mountain Waves  Volcanic Ashes






- Airport Elevation : 36 ft
- IATA code : RIX


EVRA - Riga

CURRENT METAR :
  • 202350Z 18010KT CAVOK 01/M00 Q1013 R18/190095 NOSIG

EXPIRED METARs :
  • 202320Z 18010KT 9999 SCT040 01/M00 Q1013 R18/190095 NOSIG
  • 202250Z 19009KT 9999 SCT040 02/00 Q1014 R18/190095 NOSIG
  • 202220Z 18010KT 9999 SCT024 BKN041 02/00 Q1014 R18/190095 NOSIG
  • 202150Z 17009KT 9999 FEW030 BKN040 02/M00 Q1014 R18/190095 NOSIG
  • 202120Z 18009KT 9999 BKN032 02/M00 Q1015 R18/190095 NOSIG

TAF TAF EVRA
Valid from the 21 at 00:00 until the 22 at 00:00 UTC


202301Z 2100/2124 18010KT 9999 BKN015
TEMPO 2105/2114 17015G30KT
TEMPO 2106/2109 4000 -RASN BKN007 OVC012
TEMPO 2109/2118 BKN005 OVC012
TEMPO 2121/2124 BKN010



MET'MAP, your aeronautical weather chart ! - Copyright ORBIFLY December 2007 - Disclaimer

ORBIFLY MET'MAP TEAM :

Programming & Development : Alexandra Zaïnal
Concept & original design : Baudouin d'Aumeries
Assistance for programming : Marc-Olivier Méhu
Technical & hardware support : Manuel Goepfert

Contact : metmap@orbifly.com




SOURCES & CREDITS :

   NOAA